sensor_id;sensor_type;location;lat;lon;timestamp;P1;P2;P0
43479;PMS5003;29067;35.492;-97.520;2023-06-10T00:00:56;7;6;
43479;PMS5003;29067;35.492;-97.520;2023-06-10T00:03:25;8;8;
43479;PMS5003;29067;35.492;-97.520;2023-06-10T00:05:53;8;8;
43479;PMS5003;29067;35.492;-97.520;2023-06-10T00:08:21;8;8;
43479;PMS5003;29067;35.492;-97.520;2023-06-10T00:10:49;9;9;
43479;PMS5003;29067;35.492;-97.520;2023-06-10T00:13:18;10;10;
43479;PMS5003;29067;35.492;-97.520;2023-06-10T00:15:46;9;9;
43479;PMS5003;29067;35.492;-97.520;2023-06-10T00:18:14;9;8;
43479;PMS5003;29067;35.492;-97.520;2023-06-10T00:20:43;9;9;
43479;PMS5003;29067;35.492;-97.520;2023-06-10T00:23:11;10;10;
43479;PMS5003;29067;35.492;-97.520;2023-06-10T00:25:39;10;10;
43479;PMS5003;29067;35.492;-97.520;2023-06-10T00:28:08;9;8;
43479;PMS5003;29067;35.492;-97.520;2023-06-10T00:30:36;7;7;
43479;PMS5003;29067;35.492;-97.520;2023-06-10T00:33:04;9;8;
43479;PMS5003;29067;35.492;-97.520;2023-06-10T00:35:32;8;8;
43479;PMS5003;29067;35.492;-97.520;2023-06-10T00:38:00;11;10;
43479;PMS5003;29067;35.492;-97.520;2023-06-10T00:40:38;8;8;
43479;PMS5003;29067;35.492;-97.520;2023-06-10T00:43:07;9;9;
43479;PMS5003;29067;35.492;-97.520;2023-06-10T00:45:36;8;8;
43479;PMS5003;29067;35.492;-97.520;2023-06-10T00:48:04;7;7;
43479;PMS5003;29067;35.492;-97.520;2023-06-10T00:50:33;9;9;
43479;PMS5003;29067;35.492;-97.520;2023-06-10T00:53:00;10;10;
43479;PMS5003;29067;35.492;-97.520;2023-06-10T00:55:30;7;7;
43479;PMS5003;29067;35.492;-97.520;2023-06-10T00:58:00;7;6;
43479;PMS5003;29067;35.492;-97.520;2023-06-10T01:00:29;6;6;
43479;PMS5003;29067;35.492;-97.520;2023-06-10T01:02:57;6;6;
43479;PMS5003;29067;35.492;-97.520;2023-06-10T01:05:25;7;7;
43479;PMS5003;29067;35.492;-97.520;2023-06-10T01:07:56;7;7;
43479;PMS5003;29067;35.492;-97.520;2023-06-10T01:10:33;6;6;
43479;PMS5003;29067;35.492;-97.520;2023-06-10T01:13:06;8;8;
43479;PMS5003;29067;35.492;-97.520;2023-06-10T01:15:37;10;10;
43479;PMS5003;29067;35.492;-97.520;2023-06-10T01:18:06;8;8;
43479;PMS5003;29067;35.492;-97.520;2023-06-10T01:20:36;9;8;
43479;PMS5003;29067;35.492;-97.520;2023-06-10T01:23:05;7;7;
43479;PMS5003;29067;35.492;-97.520;2023-06-10T01:25:36;7;7;
43479;PMS5003;29067;35.492;-97.520;2023-06-10T01:28:10;7;6;
43479;PMS5003;29067;35.492;-97.520;2023-06-10T01:30:43;7;6;
43479;PMS5003;29067;35.492;-97.520;2023-06-10T01:33:17;6;6;
43479;PMS5003;29067;35.492;-97.520;2023-06-10T01:35:52;9;8;
43479;PMS5003;29067;35.492;-97.520;2023-06-10T01:38:22;6;6;
43479;PMS5003;29067;35.492;-97.520;2023-06-10T01:40:52;8;8;
43479;PMS5003;29067;35.492;-97.520;2023-06-10T01:43:27;9;9;
43479;PMS5003;29067;35.492;-97.520;2023-06-10T01:46:02;6;6;
43479;PMS5003;29067;35.492;-97.520;2023-06-10T01:48:37;8;7;
43479;PMS5003;29067;35.492;-97.520;2023-06-10T01:51:06;7;7;
43479;PMS5003;29067;35.492;-97.520;2023-06-10T01:53:39;6;6;
43479;PMS5003;29067;35.492;-97.520;2023-06-10T01:56:07;6;6;
43479;PMS5003;29067;35.492;-97.520;2023-06-10T01:58:36;7;7;
43479;PMS5003;29067;35.492;-97.520;2023-06-10T02:01:04;8;8;
43479;PMS5003;29067;35.492;-97.520;2023-06-10T02:03:32;8;7;
43479;PMS5003;29067;35.492;-97.520;2023-06-10T02:06:01;6;5;
43479;PMS5003;29067;35.492;-97.520;2023-06-10T02:08:30;6;6;
43479;PMS5003;29067;35.492;-97.520;2023-06-10T02:10:58;7;7;
43479;PMS5003;29067;35.492;-97.520;2023-06-10T02:13:26;6;6;
43479;PMS5003;29067;35.492;-97.520;2023-06-10T02:16:05;7;7;
43479;PMS5003;29067;35.492;-97.520;2023-06-10T02:18:34;7;6;
43479;PMS5003;29067;35.492;-97.520;2023-06-10T02:21:08;21;21;
43479;PMS5003;29067;35.492;-97.520;2023-06-10T02:23:38;20;20;
43479;PMS5003;29067;35.492;-97.520;2023-06-10T02:26:06;15;15;
43479;PMS5003;29067;35.492;-97.520;2023-06-10T02:28:34;16;13;
43479;PMS5003;29067;35.492;-97.520;2023-06-10T02:31:03;10;10;
43479;PMS5003;29067;35.492;-97.520;2023-06-10T02:33:32;19;19;
43479;PMS5003;29067;35.492;-97.520;2023-06-10T02:36:00;20;20;
43479;PMS5003;29067;35.492;-97.520;2023-06-10T02:38:29;20;19;
43479;PMS5003;29067;35.492;-97.520;2023-06-10T02:40:57;32;32;
43479;PMS5003;29067;35.492;-97.520;2023-06-10T02:43:25;38;37;
43479;PMS5003;29067;35.492;-97.520;2023-06-10T02:45:54;35;34;
43479;PMS5003;29067;35.492;-97.520;2023-06-10T02:48:23;22;20;
43479;PMS5003;29067;35.492;-97.520;2023-06-10T02:50:50;9;9;
43479;PMS5003;29067;35.492;-97.520;2023-06-10T02:53:19;8;8;
43479;PMS5003;29067;35.492;-97.520;2023-06-10T02:55:47;8;8;
43479;PMS5003;29067;35.492;-97.520;2023-06-10T02:58:15;6;6;
43479;PMS5003;29067;35.492;-97.520;2023-06-10T03:00:44;9;9;
43479;PMS5003;29067;35.492;-97.520;2023-06-10T03:03:12;9;8;
43479;PMS5003;29067;35.492;-97.520;2023-06-10T03:05:40;9;8;
43479;PMS5003;29067;35.492;-97.520;2023-06-10T03:08:09;8;8;
43479;PMS5003;29067;35.492;-97.520;2023-06-10T03:10:37;9;9;
43479;PMS5003;29067;35.492;-97.520;2023-06-10T03:13:05;8;8;
43479;PMS5003;29067;35.492;-97.520;2023-06-10T03:15:34;9;9;
43479;PMS5003;29067;35.492;-97.520;2023-06-10T03:18:02;10;10;
43479;PMS5003;29067;35.492;-97.520;2023-06-10T03:20:30;7;7;
43479;PMS5003;29067;35.492;-97.520;2023-06-10T03:22:58;8;8;
43479;PMS5003;29067;35.492;-97.520;2023-06-10T03:25:26;9;8;
43479;PMS5003;29067;35.492;-97.520;2023-06-10T03:27:55;7;7;
43479;PMS5003;29067;35.492;-97.520;2023-06-10T03:30:23;10;10;
43479;PMS5003;29067;35.492;-97.520;2023-06-10T03:32:52;8;8;
43479;PMS5003;29067;35.492;-97.520;2023-06-10T03:35:20;9;9;
43479;PMS5003;29067;35.492;-97.520;2023-06-10T03:37:48;39;32;
43479;PMS5003;29067;35.492;-97.520;2023-06-10T03:40:16;11;10;
43479;PMS5003;29067;35.492;-97.520;2023-06-10T03:42:46;11;10;
43479;PMS5003;29067;35.492;-97.520;2023-06-10T03:45:14;9;8;
43479;PMS5003;29067;35.492;-97.520;2023-06-10T03:47:43;12;12;
43479;PMS5003;29067;35.492;-97.520;2023-06-10T03:50:11;9;9;
43479;PMS5003;29067;35.492;-97.520;2023-06-10T03:52:39;9;9;
43479;PMS5003;29067;35.492;-97.520;2023-06-10T03:55:08;9;9;
43479;PMS5003;29067;35.492;-97.520;2023-06-10T03:57:36;8;8;
43479;PMS5003;29067;35.492;-97.520;2023-06-10T04:00:06;6;6;
43479;PMS5003;29067;35.492;-97.520;2023-06-10T04:02:35;10;9;
43479;PMS5003;29067;35.492;-97.520;2023-06-10T04:05:09;12;11;
43479;PMS5003;29067;35.492;-97.520;2023-06-10T04:07:37;8;8;
43479;PMS5003;29067;35.492;-97.520;2023-06-10T04:10:06;8;8;
43479;PMS5003;29067;35.492;-97.520;2023-06-10T04:12:34;10;9;
43479;PMS5003;29067;35.492;-97.520;2023-06-10T04:15:03;9;8;
43479;PMS5003;29067;35.492;-97.520;2023-06-10T04:17:33;9;7;
43479;PMS5003;29067;35.492;-97.520;2023-06-10T04:20:08;7;7;
43479;PMS5003;29067;35.492;-97.520;2023-06-10T04:22:36;7;7;
43479;PMS5003;29067;35.492;-97.520;2023-06-10T04:25:04;10;10;
43479;PMS5003;29067;35.492;-97.520;2023-06-10T04:27:32;8;8;
43479;PMS5003;29067;35.492;-97.520;2023-06-10T04:30:01;10;9;
43479;PMS5003;29067;35.492;-97.520;2023-06-10T04:32:29;9;9;
43479;PMS5003;29067;35.492;-97.520;2023-06-10T04:34:59;9;9;
43479;PMS5003;29067;35.492;-97.520;2023-06-10T04:37:27;9;9;
43479;PMS5003;29067;35.492;-97.520;2023-06-10T04:40:00;9;9;
43479;PMS5003;29067;35.492;-97.520;2023-06-10T04:42:28;9;9;
43479;PMS5003;29067;35.492;-97.520;2023-06-10T04:44:56;7;7;
43479;PMS5003;29067;35.492;-97.520;2023-06-10T04:47:25;11;11;
43479;PMS5003;29067;35.492;-97.520;2023-06-10T04:49:53;7;7;
43479;PMS5003;29067;35.492;-97.520;2023-06-10T04:52:21;9;9;
43479;PMS5003;29067;35.492;-97.520;2023-06-10T04:54:49;9;9;
43479;PMS5003;29067;35.492;-97.520;2023-06-10T04:57:18;12;10;
43479;PMS5003;29067;35.492;-97.520;2023-06-10T04:59:46;9;9;
43479;PMS5003;29067;35.492;-97.520;2023-06-10T05:02:14;10;10;
43479;PMS5003;29067;35.492;-97.520;2023-06-10T05:04:43;11;10;
43479;PMS5003;29067;35.492;-97.520;2023-06-10T05:07:11;10;9;
43479;PMS5003;29067;35.492;-97.520;2023-06-10T05:09:39;10;10;
43479;PMS5003;29067;35.492;-97.520;2023-06-10T05:12:08;8;8;
43479;PMS5003;29067;35.492;-97.520;2023-06-10T05:14:36;11;11;
43479;PMS5003;29067;35.492;-97.520;2023-06-10T05:17:04;12;12;
43479;PMS5003;29067;35.492;-97.520;2023-06-10T05:19:32;21;21;
43479;PMS5003;29067;35.492;-97.520;2023-06-10T05:22:00;26;25;
43479;PMS5003;29067;35.492;-97.520;2023-06-10T05:24:28;24;24;
43479;PMS5003;29067;35.492;-97.520;2023-06-10T05:26:56;13;12;
43479;PMS5003;29067;35.492;-97.520;2023-06-10T05:29:23;28;27;
43479;PMS5003;29067;35.492;-97.520;2023-06-10T05:31:51;32;32;
43479;PMS5003;29067;35.492;-97.520;2023-06-10T05:34:19;17;16;
43479;PMS5003;29067;35.492;-97.520;2023-06-10T05:36:48;17;17;
43479;PMS5003;29067;35.492;-97.520;2023-06-10T05:39:16;47;47;
43479;PMS5003;29067;35.492;-97.520;2023-06-10T05:41:45;42;42;
43479;PMS5003;29067;35.492;-97.520;2023-06-10T05:44:13;52;51;
43479;PMS5003;29067;35.492;-97.520;2023-06-10T05:46:41;14;14;
43479;PMS5003;29067;35.492;-97.520;2023-06-10T05:49:09;20;19;
43479;PMS5003;29067;35.492;-97.520;2023-06-10T05:51:38;16;16;
43479;PMS5003;29067;35.492;-97.520;2023-06-10T05:54:06;15;15;
43479;PMS5003;29067;35.492;-97.520;2023-06-10T05:56:34;19;18;
43479;PMS5003;29067;35.492;-97.520;2023-06-10T05:59:02;14;11;
43479;PMS5003;29067;35.492;-97.520;2023-06-10T06:01:30;28;25;
43479;PMS5003;29067;35.492;-97.520;2023-06-10T06:03:58;13;11;
43479;PMS5003;29067;35.492;-97.520;2023-06-10T06:06:26;35;32;
43479;PMS5003;29067;35.492;-97.520;2023-06-10T06:08:54;24;21;
43479;PMS5003;29067;35.492;-97.520;2023-06-10T06:11:22;18;17;
43479;PMS5003;29067;35.492;-97.520;2023-06-10T06:13:50;25;21;
43479;PMS5003;29067;35.492;-97.520;2023-06-10T06:16:18;24;21;
43479;PMS5003;29067;35.492;-97.520;2023-06-10T06:18:46;44;41;
43479;PMS5003;29067;35.492;-97.520;2023-06-10T06:21:13;51;49;
43479;PMS5003;29067;35.492;-97.520;2023-06-10T06:23:41;49;46;
43479;PMS5003;29067;35.492;-97.520;2023-06-10T06:26:10;31;28;
43479;PMS5003;29067;35.492;-97.520;2023-06-10T06:28:38;16;13;
43479;PMS5003;29067;35.492;-97.520;2023-06-10T06:31:07;56;55;
43479;PMS5003;29067;35.492;-97.520;2023-06-10T06:33:35;53;51;
43479;PMS5003;29067;35.492;-97.520;2023-06-10T06:36:02;42;41;
43479;PMS5003;29067;35.492;-97.520;2023-06-10T06:38:31;40;37;
43479;PMS5003;29067;35.492;-97.520;2023-06-10T06:40:59;45;41;
43479;PMS5003;29067;35.492;-97.520;2023-06-10T06:43:27;35;32;
43479;PMS5003;29067;35.492;-97.520;2023-06-10T06:45:56;52;49;
43479;PMS5003;29067;35.492;-97.520;2023-06-10T06:48:24;37;33;
43479;PMS5003;29067;35.492;-97.520;2023-06-10T06:50:52;35;33;
43479;PMS5003;29067;35.492;-97.520;2023-06-10T06:53:20;41;39;
43479;PMS5003;29067;35.492;-97.520;2023-06-10T06:55:48;28;25;
43479;PMS5003;29067;35.492;-97.520;2023-06-10T06:58:16;36;32;
43479;PMS5003;29067;35.492;-97.520;2023-06-10T07:00:44;20;17;
43479;PMS5003;29067;35.492;-97.520;2023-06-10T07:03:13;29;26;
43479;PMS5003;29067;35.492;-97.520;2023-06-10T07:05:40;37;33;
43479;PMS5003;29067;35.492;-97.520;2023-06-10T07:08:08;28;23;
43479;PMS5003;29067;35.492;-97.520;2023-06-10T07:10:37;25;21;
43479;PMS5003;29067;35.492;-97.520;2023-06-10T07:13:05;25;22;
43479;PMS5003;29067;35.492;-97.520;2023-06-10T07:15:33;30;29;
43479;PMS5003;29067;35.492;-97.520;2023-06-10T07:18:01;44;44;
43479;PMS5003;29067;35.492;-97.520;2023-06-10T07:20:30;45;45;
43479;PMS5003;29067;35.492;-97.520;2023-06-10T07:22:58;48;48;
43479;PMS5003;29067;35.492;-97.520;2023-06-10T07:25:26;35;32;
43479;PMS5003;29067;35.492;-97.520;2023-06-10T07:27:54;27;25;
43479;PMS5003;29067;35.492;-97.520;2023-06-10T07:30:22;35;32;
43479;PMS5003;29067;35.492;-97.520;2023-06-10T07:32:51;31;29;
43479;PMS5003;29067;35.492;-97.520;2023-06-10T07:35:18;44;44;
43479;PMS5003;29067;35.492;-97.520;2023-06-10T07:37:47;31;27;
43479;PMS5003;29067;35.492;-97.520;2023-06-10T07:40:20;49;48;
43479;PMS5003;29067;35.492;-97.520;2023-06-10T07:42:49;49;47;
43479;PMS5003;29067;35.492;-97.520;2023-06-10T07:45:16;44;44;
43479;PMS5003;29067;35.492;-97.520;2023-06-10T07:47:44;16;13;
43479;PMS5003;29067;35.492;-97.520;2023-06-10T07:50:12;46;46;
43479;PMS5003;29067;35.492;-97.520;2023-06-10T07:52:41;8;8;
43479;PMS5003;29067;35.492;-97.520;2023-06-10T07:55:09;8;8;
43479;PMS5003;29067;35.492;-97.520;2023-06-10T07:57:37;9;9;
43479;PMS5003;29067;35.492;-97.520;2023-06-10T08:00:07;11;10;
43479;PMS5003;29067;35.492;-97.520;2023-06-10T08:02:36;10;10;
43479;PMS5003;29067;35.492;-97.520;2023-06-10T08:05:05;7;7;
43479;PMS5003;29067;35.492;-97.520;2023-06-10T08:07:33;9;9;
43479;PMS5003;29067;35.492;-97.520;2023-06-10T08:10:01;10;9;
43479;PMS5003;29067;35.492;-97.520;2023-06-10T08:12:30;11;11;
43479;PMS5003;29067;35.492;-97.520;2023-06-10T08:14:59;10;10;
43479;PMS5003;29067;35.492;-97.520;2023-06-10T08:17:27;9;9;
43479;PMS5003;29067;35.492;-97.520;2023-06-10T08:19:55;10;10;
43479;PMS5003;29067;35.492;-97.520;2023-06-10T08:22:24;12;12;
43479;PMS5003;29067;35.492;-97.520;2023-06-10T08:24:52;9;9;
43479;PMS5003;29067;35.492;-97.520;2023-06-10T08:27:20;11;11;
43479;PMS5003;29067;35.492;-97.520;2023-06-10T08:29:49;8;8;
43479;PMS5003;29067;35.492;-97.520;2023-06-10T08:32:17;11;10;
43479;PMS5003;29067;35.492;-97.520;2023-06-10T08:34:45;9;8;
43479;PMS5003;29067;35.492;-97.520;2023-06-10T08:37:14;10;10;
43479;PMS5003;29067;35.492;-97.520;2023-06-10T08:39:42;8;8;
43479;PMS5003;29067;35.492;-97.520;2023-06-10T08:42:21;7;6;
43479;PMS5003;29067;35.492;-97.520;2023-06-10T08:44:53;6;5;
43479;PMS5003;29067;35.492;-97.520;2023-06-10T08:47:22;6;6;
43479;PMS5003;29067;35.492;-97.520;2023-06-10T08:49:51;9;8;
43479;PMS5003;29067;35.492;-97.520;2023-06-10T08:52:21;2;2;
43479;PMS5003;29067;35.492;-97.520;2023-06-10T08:54:54;1;1;
43479;PMS5003;29067;35.492;-97.520;2023-06-10T08:57:27;2;1;
43479;PMS5003;29067;35.492;-97.520;2023-06-10T08:59:56;1;1;
43479;PMS5003;29067;35.492;-97.520;2023-06-10T09:02:24;0;0;
43479;PMS5003;29067;35.492;-97.520;2023-06-10T09:04:54;1;1;
43479;PMS5003;29067;35.492;-97.520;2023-06-10T09:07:23;2;1;
43479;PMS5003;29067;35.492;-97.520;2023-06-10T09:09:51;5;4;
43479;PMS5003;29067;35.492;-97.520;2023-06-10T09:12:21;2;1;
43479;PMS5003;29067;35.492;-97.520;2023-06-10T09:14:48;2;1;
43479;PMS5003;29067;35.492;-97.520;2023-06-10T09:17:17;3;2;
43479;PMS5003;29067;35.492;-97.520;2023-06-10T09:19:45;2;2;
43479;PMS5003;29067;35.492;-97.520;2023-06-10T09:22:14;3;2;
43479;PMS5003;29067;35.492;-97.520;2023-06-10T09:24:42;1;1;
43479;PMS5003;29067;35.492;-97.520;2023-06-10T09:27:11;1;1;
43479;PMS5003;29067;35.492;-97.520;2023-06-10T09:29:46;1;1;
43479;PMS5003;29067;35.492;-97.520;2023-06-10T09:32:18;1;1;
43479;PMS5003;29067;35.492;-97.520;2023-06-10T09:34:46;1;1;
43479;PMS5003;29067;35.492;-97.520;2023-06-10T09:37:19;1;1;
43479;PMS5003;29067;35.492;-97.520;2023-06-10T09:40:00;1;0;
43479;PMS5003;29067;35.492;-97.520;2023-06-10T09:42:32;1;1;
43479;PMS5003;29067;35.492;-97.520;2023-06-10T09:45:01;2;2;
43479;PMS5003;29067;35.492;-97.520;2023-06-10T09:47:29;2;2;
43479;PMS5003;29067;35.492;-97.520;2023-06-10T09:49:58;1;1;
43479;PMS5003;29067;35.492;-97.520;2023-06-10T09:52:27;3;1;
43479;PMS5003;29067;35.492;-97.520;2023-06-10T09:54:59;4;3;
43479;PMS5003;29067;35.492;-97.520;2023-06-10T09:57:30;8;5;
43479;PMS5003;29067;35.492;-97.520;2023-06-10T09:59:59;8;7;
43479;PMS5003;29067;35.492;-97.520;2023-06-10T10:02:31;6;5;
43479;PMS5003;29067;35.492;-97.520;2023-06-10T10:05:02;5;3;
43479;PMS5003;29067;35.492;-97.520;2023-06-10T10:07:30;3;3;
43479;PMS5003;29067;35.492;-97.520;2023-06-10T10:09:58;4;3;
43479;PMS5003;29067;35.492;-97.520;2023-06-10T10:12:25;3;2;
43479;PMS5003;29067;35.492;-97.520;2023-06-10T10:14:54;3;3;
43479;PMS5003;29067;35.492;-97.520;2023-06-10T10:17:23;4;3;
43479;PMS5003;29067;35.492;-97.520;2023-06-10T10:19:54;3;2;
43479;PMS5003;29067;35.492;-97.520;2023-06-10T10:22:29;2;1;
43479;PMS5003;29067;35.492;-97.520;2023-06-10T10:25:02;4;3;
43479;PMS5003;29067;35.492;-97.520;2023-06-10T10:27:35;3;2;
43479;PMS5003;29067;35.492;-97.520;2023-06-10T10:30:08;4;3;
43479;PMS5003;29067;35.492;-97.520;2023-06-10T10:32:40;6;4;
43479;PMS5003;29067;35.492;-97.520;2023-06-10T10:35:17;5;4;
43479;PMS5003;29067;35.492;-97.520;2023-06-10T10:37:48;3;3;
43479;PMS5003;29067;35.492;-97.520;2023-06-10T10:40:16;2;2;
43479;PMS5003;29067;35.492;-97.520;2023-06-10T10:42:45;7;5;
43479;PMS5003;29067;35.492;-97.520;2023-06-10T10:45:16;4;3;
43479;PMS5003;29067;35.492;-97.520;2023-06-10T10:47:44;3;3;
43479;PMS5003;29067;35.492;-97.520;2023-06-10T10:50:18;3;3;
43479;PMS5003;29067;35.492;-97.520;2023-06-10T10:52:52;2;2;
43479;PMS5003;29067;35.492;-97.520;2023-06-10T10:55:21;4;3;
43479;PMS5003;29067;35.492;-97.520;2023-06-10T10:57:57;4;3;
43479;PMS5003;29067;35.492;-97.520;2023-06-10T11:03:03;2;2;
43479;PMS5003;29067;35.492;-97.520;2023-06-10T11:05:37;4;3;
43479;PMS5003;29067;35.492;-97.520;2023-06-10T11:08:07;3;2;
43479;PMS5003;29067;35.492;-97.520;2023-06-10T11:10:36;3;2;
43479;PMS5003;29067;35.492;-97.520;2023-06-10T11:13:06;1;1;
43479;PMS5003;29067;35.492;-97.520;2023-06-10T11:15:38;3;2;
43479;PMS5003;29067;35.492;-97.520;2023-06-10T11:18:12;2;2;
43479;PMS5003;29067;35.492;-97.520;2023-06-10T11:20:44;2;2;
43479;PMS5003;29067;35.492;-97.520;2023-06-10T11:23:25;3;3;
43479;PMS5003;29067;35.492;-97.520;2023-06-10T11:23:42;2;2;
43479;PMS5003;29067;35.492;-97.520;2023-06-10T11:26:10;2;2;
43479;PMS5003;29067;35.492;-97.520;2023-06-10T11:28:41;3;3;
43479;PMS5003;29067;35.492;-97.520;2023-06-10T11:31:29;2;2;
43479;PMS5003;29067;35.492;-97.520;2023-06-10T11:33:58;3;3;
43479;PMS5003;29067;35.492;-97.520;2023-06-10T11:36:28;3;3;
43479;PMS5003;29067;35.492;-97.520;2023-06-10T11:38:57;3;3;
43479;PMS5003;29067;35.492;-97.520;2023-06-10T11:41:27;4;4;
43479;PMS5003;29067;35.492;-97.520;2023-06-10T11:43:56;4;3;
43479;PMS5003;29067;35.492;-97.520;2023-06-10T11:46:28;5;5;
43479;PMS5003;29067;35.492;-97.520;2023-06-10T11:48:56;3;3;
43479;PMS5003;29067;35.492;-97.520;2023-06-10T11:51:26;10;7;
43479;PMS5003;29067;35.492;-97.520;2023-06-10T11:53:55;4;4;
43479;PMS5003;29067;35.492;-97.520;2023-06-10T11:56:24;6;5;
43479;PMS5003;29067;35.492;-97.520;2023-06-10T11:58:53;5;5;
43479;PMS5003;29067;35.492;-97.520;2023-06-10T12:01:22;5;4;
43479;PMS5003;29067;35.492;-97.520;2023-06-10T12:04:01;5;4;
43479;PMS5003;29067;35.492;-97.520;2023-06-10T12:06:39;3;3;
43479;PMS5003;29067;35.492;-97.520;2023-06-10T12:09:13;4;3;
43479;PMS5003;29067;35.492;-97.520;2023-06-10T12:11:45;4;3;
43479;PMS5003;29067;35.492;-97.520;2023-06-10T12:14:15;2;2;
43479;PMS5003;29067;35.492;-97.520;2023-06-10T12:16:48;3;3;
43479;PMS5003;29067;35.492;-97.520;2023-06-10T12:19:16;4;4;
43479;PMS5003;29067;35.492;-97.520;2023-06-10T12:21:44;4;3;
43479;PMS5003;29067;35.492;-97.520;2023-06-10T12:24:12;2;2;
43479;PMS5003;29067;35.492;-97.520;2023-06-10T12:26:40;3;3;
43479;PMS5003;29067;35.492;-97.520;2023-06-10T12:29:15;3;3;
43479;PMS5003;29067;35.492;-97.520;2023-06-10T12:32:00;3;3;
43479;PMS5003;29067;35.492;-97.520;2023-06-10T12:34:31;3;3;
43479;PMS5003;29067;35.492;-97.520;2023-06-10T12:37:02;4;4;
43479;PMS5003;29067;35.492;-97.520;2023-06-10T12:39:33;3;3;
43479;PMS5003;29067;35.492;-97.520;2023-06-10T12:42:01;3;3;
43479;PMS5003;29067;35.492;-97.520;2023-06-10T12:44:32;2;2;
43479;PMS5003;29067;35.492;-97.520;2023-06-10T12:47:06;4;3;
43479;PMS5003;29067;35.492;-97.520;2023-06-10T12:49:36;4;4;
43479;PMS5003;29067;35.492;-97.520;2023-06-10T12:52:04;4;4;
43479;PMS5003;29067;35.492;-97.520;2023-06-10T12:54:33;3;3;
43479;PMS5003;29067;35.492;-97.520;2023-06-10T12:57:01;5;4;
43479;PMS5003;29067;35.492;-97.520;2023-06-10T12:59:29;6;5;
43479;PMS5003;29067;35.492;-97.520;2023-06-10T13:01:58;5;4;
43479;PMS5003;29067;35.492;-97.520;2023-06-10T13:04:26;4;4;
43479;PMS5003;29067;35.492;-97.520;2023-06-10T13:06:54;4;4;
43479;PMS5003;29067;35.492;-97.520;2023-06-10T13:09:22;3;3;
43479;PMS5003;29067;35.492;-97.520;2023-06-10T13:11:49;4;4;
43479;PMS5003;29067;35.492;-97.520;2023-06-10T13:14:18;4;4;
43479;PMS5003;29067;35.492;-97.520;2023-06-10T13:16:51;3;3;
43479;PMS5003;29067;35.492;-97.520;2023-06-10T13:19:18;3;3;
43479;PMS5003;29067;35.492;-97.520;2023-06-10T13:21:46;4;4;
43479;PMS5003;29067;35.492;-97.520;2023-06-10T13:24:14;5;4;
43479;PMS5003;29067;35.492;-97.520;2023-06-10T13:26:41;5;4;
43479;PMS5003;29067;35.492;-97.520;2023-06-10T13:29:09;4;3;
43479;PMS5003;29067;35.492;-97.520;2023-06-10T13:31:37;3;3;
43479;PMS5003;29067;35.492;-97.520;2023-06-10T13:34:05;4;3;
43479;PMS5003;29067;35.492;-97.520;2023-06-10T13:36:33;3;3;
43479;PMS5003;29067;35.492;-97.520;2023-06-10T13:39:01;4;4;
43479;PMS5003;29067;35.492;-97.520;2023-06-10T13:41:29;6;5;
43479;PMS5003;29067;35.492;-97.520;2023-06-10T13:43:56;4;3;
43479;PMS5003;29067;35.492;-97.520;2023-06-10T13:46:25;5;5;
43479;PMS5003;29067;35.492;-97.520;2023-06-10T13:48:53;5;5;
43479;PMS5003;29067;35.492;-97.520;2023-06-10T13:51:21;4;4;
43479;PMS5003;29067;35.492;-97.520;2023-06-10T13:53:48;4;4;
43479;PMS5003;29067;35.492;-97.520;2023-06-10T13:56:16;3;3;
43479;PMS5003;29067;35.492;-97.520;2023-06-10T13:58:44;5;5;
43479;PMS5003;29067;35.492;-97.520;2023-06-10T14:01:12;8;6;
43479;PMS5003;29067;35.492;-97.520;2023-06-10T14:03:40;5;5;
43479;PMS5003;29067;35.492;-97.520;2023-06-10T14:06:07;7;7;
43479;PMS5003;29067;35.492;-97.520;2023-06-10T14:08:35;5;5;
43479;PMS5003;29067;35.492;-97.520;2023-06-10T14:11:02;7;6;
43479;PMS5003;29067;35.492;-97.520;2023-06-10T14:13:30;6;6;
43479;PMS5003;29067;35.492;-97.520;2023-06-10T14:15:58;6;6;
43479;PMS5003;29067;35.492;-97.520;2023-06-10T14:18:25;5;5;
43479;PMS5003;29067;35.492;-97.520;2023-06-10T14:20:53;5;5;
43479;PMS5003;29067;35.492;-97.520;2023-06-10T14:23:21;5;5;
43479;PMS5003;29067;35.492;-97.520;2023-06-10T14:25:49;5;5;
43479;PMS5003;29067;35.492;-97.520;2023-06-10T14:28:17;5;5;
43479;PMS5003;29067;35.492;-97.520;2023-06-10T14:30:44;5;5;
43479;PMS5003;29067;35.492;-97.520;2023-06-10T14:33:12;5;5;
43479;PMS5003;29067;35.492;-97.520;2023-06-10T14:35:40;4;4;
43479;PMS5003;29067;35.492;-97.520;2023-06-10T14:38:07;3;2;
43479;PMS5003;29067;35.492;-97.520;2023-06-10T14:40:35;4;3;
43479;PMS5003;29067;35.492;-97.520;2023-06-10T14:43:03;5;5;
43479;PMS5003;29067;35.492;-97.520;2023-06-10T14:45:30;5;5;
43479;PMS5003;29067;35.492;-97.520;2023-06-10T14:47:58;4;3;
43479;PMS5003;29067;35.492;-97.520;2023-06-10T14:50:26;4;4;
43479;PMS5003;29067;35.492;-97.520;2023-06-10T14:52:54;4;3;
43479;PMS5003;29067;35.492;-97.520;2023-06-10T14:55:23;4;3;
43479;PMS5003;29067;35.492;-97.520;2023-06-10T14:57:50;4;4;
43479;PMS5003;29067;35.492;-97.520;2023-06-10T15:00:18;4;4;
43479;PMS5003;29067;35.492;-97.520;2023-06-10T15:02:46;4;4;
43479;PMS5003;29067;35.492;-97.520;2023-06-10T15:05:14;3;3;
43479;PMS5003;29067;35.492;-97.520;2023-06-10T15:07:43;3;3;
43479;PMS5003;29067;35.492;-97.520;2023-06-10T15:10:12;3;3;
43479;PMS5003;29067;35.492;-97.520;2023-06-10T15:12:40;4;3;
43479;PMS5003;29067;35.492;-97.520;2023-06-10T15:15:09;3;3;
43479;PMS5003;29067;35.492;-97.520;2023-06-10T15:17:37;3;3;
43479;PMS5003;29067;35.492;-97.520;2023-06-10T15:20:05;3;3;
43479;PMS5003;29067;35.492;-97.520;2023-06-10T15:22:34;2;2;
43479;PMS5003;29067;35.492;-97.520;2023-06-10T15:25:02;2;2;
43479;PMS5003;29067;35.492;-97.520;2023-06-10T15:27:30;5;4;
43479;PMS5003;29067;35.492;-97.520;2023-06-10T15:29:58;4;3;
43479;PMS5003;29067;35.492;-97.520;2023-06-10T15:32:25;4;4;
43479;PMS5003;29067;35.492;-97.520;2023-06-10T15:34:53;4;3;
43479;PMS5003;29067;35.492;-97.520;2023-06-10T15:37:20;4;4;
43479;PMS5003;29067;35.492;-97.520;2023-06-10T15:39:48;3;3;
43479;PMS5003;29067;35.492;-97.520;2023-06-10T15:42:16;4;3;
43479;PMS5003;29067;35.492;-97.520;2023-06-10T15:44:44;3;2;
43479;PMS5003;29067;35.492;-97.520;2023-06-10T15:47:13;3;3;
43479;PMS5003;29067;35.492;-97.520;2023-06-10T15:49:40;4;3;
43479;PMS5003;29067;35.492;-97.520;2023-06-10T15:52:09;5;5;
43479;PMS5003;29067;35.492;-97.520;2023-06-10T15:54:36;5;4;
43479;PMS5003;29067;35.492;-97.520;2023-06-10T15:57:05;3;3;
43479;PMS5003;29067;35.492;-97.520;2023-06-10T15:59:33;2;2;
43479;PMS5003;29067;35.492;-97.520;2023-06-10T16:02:01;2;2;
43479;PMS5003;29067;35.492;-97.520;2023-06-10T16:04:29;2;2;
43479;PMS5003;29067;35.492;-97.520;2023-06-10T16:06:57;2;2;
43479;PMS5003;29067;35.492;-97.520;2023-06-10T16:09:25;2;1;
43479;PMS5003;29067;35.492;-97.520;2023-06-10T16:11:52;3;3;
43479;PMS5003;29067;35.492;-97.520;2023-06-10T16:14:20;3;2;
43479;PMS5003;29067;35.492;-97.520;2023-06-10T16:16:48;2;2;
43479;PMS5003;29067;35.492;-97.520;2023-06-10T16:19:16;3;3;
43479;PMS5003;29067;35.492;-97.520;2023-06-10T16:21:45;3;3;